Time;durP1;ratioP1;P1;durP2;ratioP2;P2;SDS_P1;SDS_P2;PMS_P1;PMS_P2;Temp;Humidity;BMP_temperature;BMP_pressure;BME280_temperature;BME280_humidity;BME280_pressure;Samples;Min_cycle;Max_cycle;Signal;HPM_P1;HPM_P2
2023/07/17 00:02:12;;;;;;;;;;;17.50;99.90;;;;;;5135031;27;19920;-45
2023/07/17 00:04:37;;;;;;;;;;;17.40;99.90;;;;;;5138170;27;19919;-45
2023/07/17 00:07:03;;;;;;;;;;;17.40;99.90;;;;;;5138070;27;19923;-45
2023/07/17 00:09:28;;;;;;;;;;;17.40;99.90;;;;;;5138146;27;20026;-45
2023/07/17 00:11:54;;;;;;;;;;;17.40;99.90;;;;;;5138102;27;19919;-46
2023/07/17 00:14:21;;;;;;;;;;;17.40;99.90;;;;;;5137821;27;20364;-45
2023/07/17 00:16:46;;;;;;;;;;;17.40;99.90;;;;;;5138140;27;19919;-45
2023/07/17 00:19:12;;;;;;;;;;;17.40;99.90;;;;;;5138237;27;19926;-45
2023/07/17 00:21:38;;;;;;;;;;;17.40;99.90;;;;;;5137871;27;19920;-45
2023/07/17 00:24:03;;;;;;;;;;;17.30;99.90;;;;;;5137811;27;19919;-45
2023/07/17 00:26:29;;;;;;;;;;;17.30;99.90;;;;;;5103181;27;19961;-45
2023/07/17 00:28:55;;;;;;;;;;;17.30;99.90;;;;;;5137885;27;20027;-45
2023/07/17 00:31:20;;;;;;;;;;;17.30;99.90;;;;;;5137821;27;19919;-45
2023/07/17 00:33:46;;;;;;;;;;;17.20;99.90;;;;;;5137549;27;20299;-45
2023/07/17 00:36:12;;;;;;;;;;;17.20;99.90;;;;;;5119287;27;19920;-46
2023/07/17 00:38:37;;;;;;;;;;;17.30;99.90;;;;;;5137547;27;20382;-46
2023/07/17 00:41:03;;;;;;;;;;;17.20;99.90;;;;;;5137340;27;19923;-46
2023/07/17 00:43:28;;;;;;;;;;;17.30;99.90;;;;;;5137612;27;19919;-45
2023/07/17 00:45:54;;;;;;;;;;;17.30;99.90;;;;;;5137693;27;20003;-46
2023/07/17 00:48:19;;;;;;;;;;;17.30;99.90;;;;;;5119438;27;20428;-46
2023/07/17 00:50:45;;;;;;;;;;;17.30;99.90;;;;;;5137576;27;19923;-46
2023/07/17 00:53:11;;;;;;;;;;;17.40;99.90;;;;;;5137123;27;20380;-47
2023/07/17 00:55:37;;;;;;;;;;;17.40;99.90;;;;;;5137031;27;20380;-46
2023/07/17 00:58:03;;;;;;;;;;;17.40;99.90;;;;;;5119271;27;19965;-47
2023/07/17 01:00:29;;;;;;;;;;;17.40;99.90;;;;;;5136974;27;19919;-46
2023/07/17 01:02:55;;;;;;;;;;;17.40;99.90;;;;;;5136968;27;20409;-46
2023/07/17 01:05:21;;;;;;;;;;;17.40;99.90;;;;;;5137118;27;19925;-46
2023/07/17 01:07:46;;;;;;;;;;;17.40;99.90;;;;;;5118689;27;19919;-49
2023/07/17 01:10:12;;;;;;;;;;;17.30;99.90;;;;;;5137003;27;19919;-45
2023/07/17 01:12:38;;;;;;;;;;;17.30;99.90;;;;;;5136823;27;19919;-48
2023/07/17 01:15:04;;;;;;;;;;;17.30;99.90;;;;;;5136301;27;19919;-46
2023/07/17 01:17:29;;;;;;;;;;;17.20;99.90;;;;;;5119169;27;19968;-45
2023/07/17 01:19:55;;;;;;;;;;;17.20;99.90;;;;;;5136923;27;19927;-45
2023/07/17 01:22:29;;;;;;;;;;;17.20;99.90;;;;;;5136791;27;19919;-45
2023/07/17 01:24:54;;;;;;;;;;;17.10;99.90;;;;;;5136790;27;19926;-45
2023/07/17 01:27:20;;;;;;;;;;;17.10;99.90;;;;;;5118604;27;19919;-46
2023/07/17 01:29:46;;;;;;;;;;;17.00;99.90;;;;;;5136583;27;19966;-45
2023/07/17 01:32:11;;;;;;;;;;;17.00;99.90;;;;;;5136765;27;19919;-45
2023/07/17 01:34:38;;;;;;;;;;;17.00;99.90;;;;;;5136524;27;20371;-45
2023/07/17 01:37:04;;;;;;;;;;;17.00;99.90;;;;;;5136315;27;20364;-44
2023/07/17 01:39:30;;;;;;;;;;;16.90;99.90;;;;;;5136504;27;19919;-45
2023/07/17 01:41:56;;;;;;;;;;;16.90;99.90;;;;;;5136219;27;19964;-45
2023/07/17 01:44:21;;;;;;;;;;;16.90;99.90;;;;;;5136553;27;19919;-45
2023/07/17 01:46:47;;;;;;;;;;;16.90;99.90;;;;;;5136182;27;19919;-44
2023/07/17 01:49:12;;;;;;;;;;;16.90;99.90;;;;;;5136308;27;20414;-45
2023/07/17 01:51:38;;;;;;;;;;;16.90;99.90;;;;;;5136179;27;20326;-46
2023/07/17 01:54:04;;;;;;;;;;;16.90;99.90;;;;;;5136387;27;19919;-45
2023/07/17 01:56:29;;;;;;;;;;;16.80;99.90;;;;;;5136170;27;20275;-45
2023/07/17 01:58:55;;;;;;;;;;;16.90;99.90;;;;;;5118021;27;19941;-45
2023/07/17 02:01:20;;;;;;;;;;;16.80;99.90;;;;;;5136019;27;19919;-45
2023/07/17 02:03:46;;;;;;;;;;;16.80;99.90;;;;;;5135857;27;19919;-45
2023/07/17 02:06:12;;;;;;;;;;;16.80;99.90;;;;;;5135775;27;19919;-44
2023/07/17 02:08:38;;;;;;;;;;;16.80;99.90;;;;;;5135632;27;19919;-45
2023/07/17 02:11:03;;;;;;;;;;;16.80;99.90;;;;;;5135694;27;20275;-45
2023/07/17 02:13:29;;;;;;;;;;;16.80;99.90;;;;;;5135844;27;20030;-45
2023/07/17 02:15:56;;;;;;;;;;;16.80;99.90;;;;;;5135637;27;19964;-45
2023/07/17 02:18:22;;;;;;;;;;;16.80;99.90;;;;;;5135433;27;20439;-45
2023/07/17 02:20:48;;;;;;;;;;;16.80;99.90;;;;;;5117431;27;19919;-46
2023/07/17 02:23:14;;;;;;;;;;;16.80;99.90;;;;;;5135481;27;19919;-45
2023/07/17 02:25:39;;;;;;;;;;;16.80;99.90;;;;;;5135934;27;20407;-45
2023/07/17 02:28:05;;;;;;;;;;;16.80;99.90;;;;;;5117365;27;19966;-47
2023/07/17 02:30:30;;;;;;;;;;;16.80;99.90;;;;;;5135374;27;19919;-45
2023/07/17 02:32:56;;;;;;;;;;;16.70;99.90;;;;;;5135583;27;19919;-45
2023/07/17 02:35:21;;;;;;;;;;;16.70;99.90;;;;;;5135374;27;20009;-45
2023/07/17 02:37:47;;;;;;;;;;;16.70;99.90;;;;;;5117022;27;19923;-45
2023/07/17 02:40:13;;;;;;;;;;;16.70;99.90;;;;;;5135366;27;19923;-46
2023/07/17 02:42:39;;;;;;;;;;;16.60;99.90;;;;;;5135341;27;19919;-45
2023/07/17 02:45:06;;;;;;;;;;;16.60;99.90;;;;;;5135294;27;20006;-45
2023/07/17 02:47:31;;;;;;;;;;;16.60;99.90;;;;;;5135366;27;19919;-45
2023/07/17 02:49:57;;;;;;;;;;;16.60;99.90;;;;;;5116914;27;20038;-44
2023/07/17 02:52:22;;;;;;;;;;;16.60;99.90;;;;;;5135170;27;19919;-45
2023/07/17 02:54:48;;;;;;;;;;;16.50;99.90;;;;;;5135105;27;19923;-45
2023/07/17 02:57:15;;;;;;;;;;;16.50;99.90;;;;;;5135114;27;19923;-45
2023/07/17 02:59:41;;;;;;;;;;;16.50;99.90;;;;;;5134928;27;19919;-45
2023/07/17 03:02:06;;;;;;;;;;;16.50;99.90;;;;;;5135121;27;19919;-45
2023/07/17 03:04:32;;;;;;;;;;;16.50;99.90;;;;;;5134886;27;19972;-46
2023/07/17 03:06:57;;;;;;;;;;;16.50;99.90;;;;;;5135017;27;19984;-46
2023/07/17 03:09:23;;;;;;;;;;;16.50;99.90;;;;;;5135007;28;19919;-45
2023/07/17 03:11:48;;;;;;;;;;;16.50;99.90;;;;;;5116410;28;19920;-45
2023/07/17 03:14:14;;;;;;;;;;;16.50;99.90;;;;;;5134899;28;19919;-45
2023/07/17 03:16:40;;;;;;;;;;;16.40;99.90;;;;;;5116541;28;19930;-46
2023/07/17 03:19:06;;;;;;;;;;;16.50;99.90;;;;;;5134919;28;19919;-46
2023/07/17 03:21:32;;;;;;;;;;;16.50;99.90;;;;;;5134609;28;20358;-45
2023/07/17 03:23:57;;;;;;;;;;;16.50;99.90;;;;;;5134845;28;19925;-45
2023/07/17 03:26:23;;;;;;;;;;;16.50;99.90;;;;;;5116784;28;19919;-45
2023/07/17 03:28:48;;;;;;;;;;;16.40;99.90;;;;;;5116680;28;19919;-45
2023/07/17 03:31:14;;;;;;;;;;;16.40;99.90;;;;;;5134719;28;19919;-46
2023/07/17 03:33:40;;;;;;;;;;;16.50;99.90;;;;;;5134598;28;19983;-45
2023/07/17 03:36:06;;;;;;;;;;;16.40;99.90;;;;;;5116564;28;19926;-47
2023/07/17 03:38:32;;;;;;;;;;;16.40;99.90;;;;;;5137300;27;20375;-44
2023/07/17 03:40:57;;;;;;;;;;;16.40;99.90;;;;;;5138614;27;19919;-46
2023/07/17 03:43:23;;;;;;;;;;;16.40;99.90;;;;;;5138708;27;19920;-45
2023/07/17 03:45:51;;;;;;;;;;;16.40;99.90;;;;;;5138629;27;19942;-45
2023/07/17 03:48:17;;;;;;;;;;;16.40;99.90;;;;;;5138622;27;19979;-45
2023/07/17 03:50:43;;;;;;;;;;;16.40;99.90;;;;;;5120131;27;19923;-45
2023/07/17 03:53:08;;;;;;;;;;;16.30;99.90;;;;;;5138561;27;20291;-45
2023/07/17 03:55:34;;;;;;;;;;;16.30;99.90;;;;;;5120626;27;19927;-45
2023/07/17 03:58:00;;;;;;;;;;;16.30;99.90;;;;;;5138488;27;19923;-45
2023/07/17 04:00:25;;;;;;;;;;;16.30;99.90;;;;;;5120387;27;19926;-46
2023/07/17 04:02:51;;;;;;;;;;;16.30;99.90;;;;;;5120430;27;19926;-46
2023/07/17 04:05:16;;;;;;;;;;;16.30;99.90;;;;;;5138016;27;19945;-44
2023/07/17 04:07:42;;;;;;;;;;;16.30;99.90;;;;;;5138078;27;19919;-45
2023/07/17 04:10:08;;;;;;;;;;;16.30;99.90;;;;;;5138207;27;19926;-45
2023/07/17 04:12:33;;;;;;;;;;;16.20;99.90;;;;;;5138023;27;19919;-45
2023/07/17 04:14:59;;;;;;;;;;;16.30;99.90;;;;;;5137927;27;19930;-45
2023/07/17 04:17:24;;;;;;;;;;;16.30;99.90;;;;;;5119898;27;19926;-45
2023/07/17 04:19:50;;;;;;;;;;;16.20;99.90;;;;;;5137913;27;19926;-45
2023/07/17 04:22:16;;;;;;;;;;;16.20;99.90;;;;;;5138214;27;19976;-45
2023/07/17 04:24:41;;;;;;;;;;;16.20;99.90;;;;;;5137920;27;20406;-45
2023/07/17 04:27:07;;;;;;;;;;;16.20;99.90;;;;;;5137920;27;19942;-45
2023/07/17 04:29:32;;;;;;;;;;;16.20;99.90;;;;;;5137881;27;19919;-47
2023/07/17 04:31:58;;;;;;;;;;;16.20;99.90;;;;;;5137736;27;19979;-46
2023/07/17 04:34:23;;;;;;;;;;;16.20;99.90;;;;;;5137632;27;20001;-45
2023/07/17 04:36:49;;;;;;;;;;;16.20;99.90;;;;;;5119831;27;19924;-45
2023/07/17 04:39:14;;;;;;;;;;;16.20;99.90;;;;;;5137703;27;19919;-45
2023/07/17 04:41:40;;;;;;;;;;;16.20;99.90;;;;;;5137811;27;20367;-45
2023/07/17 04:44:06;;;;;;;;;;;16.20;99.90;;;;;;5137479;27;19919;-45
2023/07/17 04:46:31;;;;;;;;;;;16.20;99.90;;;;;;5137701;27;19926;-45
2023/07/17 04:48:57;;;;;;;;;;;16.20;99.90;;;;;;5136045;27;19920;-45
2023/07/17 04:51:22;;;;;;;;;;;16.30;99.90;;;;;;5137210;27;19919;-45
2023/07/17 04:53:48;;;;;;;;;;;16.30;99.90;;;;;;5137319;27;20303;-45
2023/07/17 04:56:14;;;;;;;;;;;16.30;99.90;;;;;;5119316;27;19972;-45
2023/07/17 04:58:39;;;;;;;;;;;16.30;99.90;;;;;;5137340;27;19923;-44
2023/07/17 05:01:05;;;;;;;;;;;16.30;99.90;;;;;;5119303;27;20280;-44
2023/07/17 05:03:31;;;;;;;;;;;16.40;99.90;;;;;;5137135;27;19920;-44
2023/07/17 05:05:56;;;;;;;;;;;16.40;99.90;;;;;;5118894;27;20340;-47
2023/07/17 05:08:22;;;;;;;;;;;16.40;99.90;;;;;;5137121;27;19919;-46
2023/07/17 05:11:00;;;;;;;;;;;16.40;99.90;;;;;;5137000;27;19919;-46
2023/07/17 05:13:26;;;;;;;;;;;16.50;99.90;;;;;;5136935;27;20407;-46
2023/07/17 05:15:52;;;;;;;;;;;16.50;99.90;;;;;;5136895;27;19977;-45
2023/07/17 05:18:18;;;;;;;;;;;16.50;99.90;;;;;;5136742;27;20284;-46
2023/07/17 05:20:44;;;;;;;;;;;16.60;99.90;;;;;;5137206;27;19919;-46
2023/07/17 05:23:10;;;;;;;;;;;16.60;99.90;;;;;;5136920;27;19931;-48
2023/07/17 05:25:36;;;;;;;;;;;16.70;99.90;;;;;;5136796;27;20283;-47
2023/07/17 05:28:01;;;;;;;;;;;16.70;99.90;;;;;;5136698;27;19926;-47
2023/07/17 05:30:27;;;;;;;;;;;16.80;99.90;;;;;;5136518;27;19972;-47
2023/07/17 05:32:52;;;;;;;;;;;16.90;99.90;;;;;;5136315;27;19919;-46
2023/07/17 05:35:18;;;;;;;;;;;17.10;99.90;;;;;;5136340;27;20010;-46
2023/07/17 05:37:43;;;;;;;;;;;17.20;99.90;;;;;;5136549;27;19919;-47
2023/07/17 05:40:10;;;;;;;;;;;17.30;99.90;;;;;;5136781;27;19923;-46
2023/07/17 05:42:36;;;;;;;;;;;17.40;99.90;;;;;;5118432;27;19919;-46
2023/07/17 05:45:02;;;;;;;;;;;17.40;99.90;;;;;;5136296;27;20328;-46
2023/07/17 05:47:28;;;;;;;;;;;17.50;99.90;;;;;;5136156;27;19919;-46
2023/07/17 05:49:53;;;;;;;;;;;17.50;99.90;;;;;;5136113;27;19919;-47
2023/07/17 05:52:19;;;;;;;;;;;17.50;99.90;;;;;;5136295;27;19923;-47
2023/07/17 05:54:44;;;;;;;;;;;17.60;99.90;;;;;;5136161;27;20283;-46
2023/07/17 05:57:10;;;;;;;;;;;17.60;99.90;;;;;;5136009;27;20292;-46
2023/07/17 05:59:36;;;;;;;;;;;17.70;99.90;;;;;;5118107;27;20279;-46
2023/07/17 06:02:02;;;;;;;;;;;17.70;99.90;;;;;;5135411;27;19927;-46
2023/07/17 06:04:28;;;;;;;;;;;17.70;99.90;;;;;;5136015;27;20071;-46
2023/07/17 06:06:53;;;;;;;;;;;17.70;99.90;;;;;;5117912;27;19976;-46
2023/07/17 06:09:19;;;;;;;;;;;17.70;99.90;;;;;;5118210;27;19930;-45
2023/07/17 06:11:45;;;;;;;;;;;17.80;99.90;;;;;;5135672;27;19919;-46
2023/07/17 06:14:11;;;;;;;;;;;17.80;99.90;;;;;;5135539;27;19926;-46
2023/07/17 06:16:36;;;;;;;;;;;17.90;99.90;;;;;;5135753;27;19944;-45
2023/07/17 06:19:03;;;;;;;;;;;17.90;99.90;;;;;;5135473;27;19919;-46
2023/07/17 06:21:28;;;;;;;;;;;17.90;99.90;;;;;;5117616;27;20376;-45
2023/07/17 06:23:54;;;;;;;;;;;17.90;99.90;;;;;;5135814;27;20006;-45
2023/07/17 06:26:19;;;;;;;;;;;18.00;99.90;;;;;;5135523;27;20460;-46
2023/07/17 06:28:47;;;;;;;;;;;18.10;99.90;;;;;;5117049;27;20326;-45
2023/07/17 06:31:12;;;;;;;;;;;18.10;99.90;;;;;;5135342;27;19919;-45
2023/07/17 06:33:38;;;;;;;;;;;18.20;99.90;;;;;;5135229;27;20022;-44
2023/07/17 06:36:04;;;;;;;;;;;18.20;99.90;;;;;;5135376;27;19927;-45
2023/07/17 06:38:29;;;;;;;;;;;18.30;99.90;;;;;;5135466;27;19970;-45
2023/07/17 06:40:55;;;;;;;;;;;18.30;99.90;;;;;;5135382;27;20328;-46
2023/07/17 06:43:21;;;;;;;;;;;18.20;99.90;;;;;;5135134;27;19927;-46
2023/07/17 06:45:47;;;;;;;;;;;18.20;99.90;;;;;;5135324;27;19964;-45
2023/07/17 06:48:12;;;;;;;;;;;18.20;99.90;;;;;;5134938;27;19919;-45
2023/07/17 06:50:38;;;;;;;;;;;18.20;99.90;;;;;;5135291;27;19919;-45
2023/07/17 06:53:04;;;;;;;;;;;18.20;99.90;;;;;;5135209;27;20446;-46
2023/07/17 06:55:29;;;;;;;;;;;18.20;99.90;;;;;;5135493;27;20295;-45
2023/07/17 06:57:55;;;;;;;;;;;18.20;99.90;;;;;;5134859;27;20371;-45
2023/07/17 07:00:21;;;;;;;;;;;18.30;99.90;;;;;;5116848;27;19919;-46
2023/07/17 07:02:46;;;;;;;;;;;18.30;99.90;;;;;;5134996;27;19965;-44
2023/07/17 07:05:12;;;;;;;;;;;18.30;99.90;;;;;;5135352;27;19929;-45
2023/07/17 07:07:38;;;;;;;;;;;18.30;99.90;;;;;;5135263;28;19920;-44
2023/07/17 07:10:03;;;;;;;;;;;18.30;99.90;;;;;;5134997;28;19923;-45
2023/07/17 07:12:29;;;;;;;;;;;18.40;99.90;;;;;;5133944;27;19923;-46
2023/07/17 07:14:55;;;;;;;;;;;18.40;99.90;;;;;;5134672;28;19926;-46
2023/07/17 07:17:20;;;;;;;;;;;18.40;99.90;;;;;;5134848;28;19919;-45
2023/07/17 07:19:46;;;;;;;;;;;18.40;99.90;;;;;;5116847;28;19919;-45
2023/07/17 07:22:11;;;;;;;;;;;18.40;99.90;;;;;;5134856;28;20329;-46
2023/07/17 07:24:41;;;;;;;;;;;18.40;99.90;;;;;;5134821;28;19920;-46
2023/07/17 07:27:07;;;;;;;;;;;18.40;99.90;;;;;;5134867;28;20425;-45
2023/07/17 07:29:32;;;;;;;;;;;18.40;99.90;;;;;;5134805;28;20002;-46
2023/07/17 07:31:58;;;;;;;;;;;18.40;99.90;;;;;;5134899;28;19930;-45
2023/07/17 07:34:23;;;;;;;;;;;18.30;99.90;;;;;;5135553;28;19919;-46
2023/07/17 07:36:49;;;;;;;;;;;18.30;99.90;;;;;;5134841;28;20368;-46
2023/07/17 07:39:14;;;;;;;;;;;18.30;99.90;;;;;;5134829;28;19988;-46
2023/07/17 07:41:40;;;;;;;;;;;18.30;99.90;;;;;;5134700;28;19919;-47
2023/07/17 07:44:06;;;;;;;;;;;18.20;99.90;;;;;;5134708;28;19926;-47
2023/07/17 07:46:31;;;;;;;;;;;18.10;99.90;;;;;;5116352;28;20014;-46
2023/07/17 07:48:57;;;;;;;;;;;18.10;99.90;;;;;;5134841;28;19919;-46
2023/07/17 07:51:23;;;;;;;;;;;18.00;99.90;;;;;;5116514;28;19922;-45
2023/07/17 07:53:48;;;;;;;;;;;17.90;99.90;;;;;;5134499;28;19978;-48
2023/07/17 07:56:14;;;;;;;;;;;17.90;99.90;;;;;;5134457;28;19919;-50
2023/07/17 07:58:39;;;;;;;;;;;17.90;99.90;;;;;;5134630;28;20336;-48
2023/07/17 08:01:05;;;;;;;;;;;17.90;99.90;;;;;;5134452;28;20427;-48
2023/07/17 08:03:30;;;;;;;;;;;17.90;99.90;;;;;;5134550;28;19919;-47
2023/07/17 08:05:56;;;;;;;;;;;18.00;99.90;;;;;;5116315;28;19919;-50
2023/07/17 08:08:22;;;;;;;;;;;18.10;99.90;;;;;;5134481;28;19926;-49
2023/07/17 08:10:51;;;;;;;;;;;18.10;99.90;;;;;;5134127;28;19975;-51
2023/07/17 08:13:16;;;;;;;;;;;18.20;99.90;;;;;;5116135;28;19972;-47
2023/07/17 08:15:42;;;;;;;;;;;18.30;99.90;;;;;;5134103;28;19920;-47
2023/07/17 08:18:07;;;;;;;;;;;18.40;99.90;;;;;;5134649;28;20361;-48
2023/07/17 08:20:33;;;;;;;;;;;18.40;99.90;;;;;;5134316;28;19919;-48
2023/07/17 08:22:59;;;;;;;;;;;18.40;99.90;;;;;;5134511;27;20433;-49
2023/07/17 08:25:24;;;;;;;;;;;18.40;99.90;;;;;;5137941;27;19919;-48
2023/07/17 08:27:51;;;;;;;;;;;18.50;99.90;;;;;;5137903;27;19923;-46
2023/07/17 08:30:16;;;;;;;;;;;18.60;99.90;;;;;;5137751;27;19977;-48
2023/07/17 08:32:42;;;;;;;;;;;18.60;99.90;;;;;;5137884;27;19958;-48
2023/07/17 08:35:08;;;;;;;;;;;18.70;99.90;;;;;;5137774;27;19956;-48
2023/07/17 08:37:33;;;;;;;;;;;18.70;99.90;;;;;;5137795;27;19919;-48
2023/07/17 08:39:59;;;;;;;;;;;18.80;99.90;;;;;;5137730;27;19923;-46
2023/07/17 08:42:25;;;;;;;;;;;18.90;99.90;;;;;;5137493;27;19919;-49
2023/07/17 08:44:51;;;;;;;;;;;18.90;99.90;;;;;;5137518;27;20402;-49
2023/07/17 08:47:17;;;;;;;;;;;18.90;99.90;;;;;;5137639;27;20405;-47
2023/07/17 08:49:42;;;;;;;;;;;18.90;99.90;;;;;;5137600;27;19919;-47
2023/07/17 08:52:09;;;;;;;;;;;18.80;99.90;;;;;;5137564;27;19942;-49
2023/07/17 08:54:35;;;;;;;;;;;18.50;99.90;;;;;;5137261;27;19919;-47
2023/07/17 08:57:04;;;;;;;;;;;18.40;99.90;;;;;;5137504;27;19927;-48
2023/07/17 08:59:34;;;;;;;;;;;18.30;99.90;;;;;;5137186;27;20021;-47
2023/07/17 09:02:00;;;;;;;;;;;18.20;99.90;;;;;;5137270;27;20403;-53
2023/07/17 09:04:26;;;;;;;;;;;18.10;99.90;;;;;;5137755;27;19919;-48
2023/07/17 09:06:52;;;;;;;;;;;18.10;99.90;;;;;;5137209;27;20029;-51
2023/07/17 09:09:19;;;;;;;;;;;18.10;99.90;;;;;;5118881;27;20010;-50
2023/07/17 09:11:44;;;;;;;;;;;18.20;99.90;;;;;;5137096;27;19926;-54
2023/07/17 09:14:10;;;;;;;;;;;18.30;99.90;;;;;;5136686;27;19923;-53
2023/07/17 09:16:38;;;;;;;;;;;18.30;99.90;;;;;;5119141;27;19920;-53
2023/07/17 09:19:03;;;;;;;;;;;18.40;99.90;;;;;;5136957;27;19919;-54
2023/07/17 09:21:29;;;;;;;;;;;18.30;99.90;;;;;;5118742;27;19923;-55
2023/07/17 09:23:55;;;;;;;;;;;18.40;99.90;;;;;;5136749;27;19968;-49
2023/07/17 09:26:22;;;;;;;;;;;18.40;99.90;;;;;;5118688;27;19920;-55
2023/07/17 09:28:49;;;;;;;;;;;18.50;99.90;;;;;;5136522;27;19919;-54
2023/07/17 09:31:21;;;;;;;;;;;18.60;99.90;;;;;;5136827;27;19919;-53
2023/07/17 09:33:47;;;;;;;;;;;18.70;99.90;;;;;;5136552;27;19979;-49
2023/07/17 09:36:12;;;;;;;;;;;18.90;99.90;;;;;;5136007;27;20027;-46
2023/07/17 09:38:38;;;;;;;;;;;19.00;99.90;;;;;;5136562;27;20271;-51
2023/07/17 09:41:16;;;;;;;;;;;19.00;99.90;;;;;;5118240;27;19919;-50
2023/07/17 09:43:41;;;;;;;;;;;19.00;99.90;;;;;;5137038;27;19973;-48
2023/07/17 09:46:07;;;;;;;;;;;19.00;99.90;;;;;;5136391;27;20302;-53
2023/07/17 09:48:33;;;;;;;;;;;19.10;99.90;;;;;;5136333;27;19919;-48
2023/07/17 09:50:59;;;;;;;;;;;19.10;99.90;;;;;;5136227;27;20356;-49
2023/07/17 09:53:25;;;;;;;;;;;19.20;99.90;;;;;;5136070;27;19972;-46
2023/07/17 09:55:51;;;;;;;;;;;19.20;99.90;;;;;;5135869;27;19919;-49
2023/07/17 09:58:17;;;;;;;;;;;19.20;99.90;;;;;;5118212;27;20265;-48
2023/07/17 10:00:43;;;;;;;;;;;19.20;99.90;;;;;;5135818;27;19979;-50
2023/07/17 10:03:09;;;;;;;;;;;19.20;99.90;;;;;;5136097;27;20030;-48
2023/07/17 10:05:36;;;;;;;;;;;19.20;99.90;;;;;;5135823;27;19926;-47
2023/07/17 10:08:05;;;;;;;;;;;19.30;99.90;;;;;;5135827;27;19919;-47
2023/07/17 10:10:31;;;;;;;;;;;19.40;99.90;;;;;;5135595;27;19919;-47
2023/07/17 10:12:56;;;;;;;;;;;19.50;99.90;;;;;;5135974;27;19919;-50
2023/07/17 10:15:23;;;;;;;;;;;19.70;99.90;;;;;;5135714;27;19920;-49
2023/07/17 10:17:58;;;;;;;;;;;19.80;99.90;;;;;;5136088;27;19919;-48
2023/07/17 10:20:24;;;;;;;;;;;19.90;99.90;;;;;;5135588;27;20396;-47
2023/07/17 10:22:50;;;;;;;;;;;19.90;99.90;;;;;;5135668;27;19923;-48
2023/07/17 10:25:18;;;;;;;;;;;19.80;99.90;;;;;;5117341;27;20444;-46
2023/07/17 10:27:51;;;;;;;;;;;19.70;99.90;;;;;;5136129;27;20018;-50
2023/07/17 10:30:30;;;;;;;;;;;19.70;99.90;;;;;;5135506;27;19920;-46
2023/07/17 10:33:06;;;;;;;;;;;19.80;99.90;;;;;;5135459;27;19985;-47
2023/07/17 10:35:44;;;;;;;;;;;19.90;99.90;;;;;;5135102;27;19919;-47
2023/07/17 10:38:10;;;;;;;;;;;20.10;99.90;;;;;;5135552;27;19931;-45
2023/07/17 10:40:36;;;;;;;;;;;20.30;99.90;;;;;;5135666;27;20364;-46
2023/07/17 10:43:12;;;;;;;;;;;20.40;99.90;;;;;;5135254;27;20291;-45
2023/07/17 10:45:37;;;;;;;;;;;20.60;99.90;;;;;;5135312;27;19973;-47
2023/07/17 10:48:05;;;;;;;;;;;20.60;99.90;;;;;;5134089;27;19966;-48
2023/07/17 10:50:30;;;;;;;;;;;20.70;99.90;;;;;;5135196;27;19970;-46
2023/07/17 10:53:03;;;;;;;;;;;20.60;99.90;;;;;;5117096;27;19920;-49
2023/07/17 10:55:29;;;;;;;;;;;20.50;99.90;;;;;;5135187;27;19920;-46
2023/07/17 10:57:56;;;;;;;;;;;20.50;99.90;;;;;;5116974;27;19972;-47
2023/07/17 11:00:22;;;;;;;;;;;20.50;99.90;;;;;;5134863;27;19964;-46
2023/07/17 11:02:47;;;;;;;;;;;20.50;99.90;;;;;;5135075;27;19927;-47
2023/07/17 11:05:13;;;;;;;;;;;20.60;99.90;;;;;;5117131;27;19962;-49
2023/07/17 11:07:39;;;;;;;;;;;20.60;99.90;;;;;;5117172;27;20325;-49
2023/07/17 11:10:09;;;;;;;;;;;20.70;99.90;;;;;;5135090;28;20348;-49
2023/07/17 11:12:35;;;;;;;;;;;20.70;99.90;;;;;;5134768;28;19919;-48
2023/07/17 11:15:00;;;;;;;;;;;20.70;99.90;;;;;;5134638;28;20284;-48
2023/07/17 11:17:26;;;;;;;;;;;20.70;99.90;;;;;;5134987;28;19919;-49
2023/07/17 11:20:04;;;;;;;;;;;20.80;99.90;;;;;;5116921;28;19926;-47
2023/07/17 11:22:30;;;;;;;;;;;20.80;99.90;;;;;;5135036;28;19930;-48
2023/07/17 11:24:56;;;;;;;;;;;20.80;99.90;;;;;;5116521;28;20269;-54
2023/07/17 11:27:22;;;;;;;;;;;20.70;99.90;;;;;;5134885;28;19920;-47
2023/07/17 11:29:50;;;;;;;;;;;20.70;99.90;;;;;;5134554;28;20018;-47
2023/07/17 11:32:19;;;;;;;;;;;20.70;99.90;;;;;;5135056;28;19927;-53
2023/07/17 11:35:06;;;;;;;;;;;20.60;99.90;;;;;;5134780;28;19919;-47
2023/07/17 11:37:34;;;;;;;;;;;20.60;99.90;;;;;;5134409;28;19926;-48
2023/07/17 11:40:09;;;;;;;;;;;20.60;99.90;;;;;;5134677;28;19977;-46
2023/07/17 11:42:55;;;;;;;;;;;20.70;99.90;;;;;;5134763;28;19923;-50
2023/07/17 11:45:25;;;;;;;;;;;20.80;99.90;;;;;;5134721;28;19919;-46
2023/07/17 11:47:55;;;;;;;;;;;21.00;99.90;;;;;;5134748;28;19923;-45
2023/07/17 11:50:26;;;;;;;;;;;21.20;99.90;;;;;;5134603;28;19926;-47
2023/07/17 11:53:10;;;;;;;;;;;21.20;99.90;;;;;;5135445;28;19920;-48
2023/07/17 11:55:36;;;;;;;;;;;21.10;99.90;;;;;;5134910;28;19962;-48
2023/07/17 11:58:31;;;;;;;;;;;21.10;99.90;;;;;;5134713;27;19965;-49
2023/07/17 12:00:57;;;;;;;;;;;21.10;99.90;;;;;;5116262;27;19923;-47
2023/07/17 12:03:23;;;;;;;;;;;21.30;99.90;;;;;;5138270;27;20469;-50
2023/07/17 12:05:48;;;;;;;;;;;21.40;99.90;;;;;;5138361;27;19919;-51
2023/07/17 12:08:14;;;;;;;;;;;21.60;99.90;;;;;;5138324;27;20378;-47
2023/07/17 12:10:40;;;;;;;;;;;21.80;99.90;;;;;;5138111;27;19934;-47
2023/07/17 12:13:06;;;;;;;;;;;21.70;99.50;;;;;;5138177;27;19974;-48
2023/07/17 12:15:31;;;;;;;;;;;21.70;99.90;;;;;;5137913;27;19919;-47
2023/07/17 12:17:58;;;;;;;;;;;21.80;99.90;;;;;;5138144;27;19919;-46
2023/07/17 12:20:24;;;;;;;;;;;21.90;99.30;;;;;;5138127;27;20010;-47
2023/07/17 12:22:51;;;;;;;;;;;21.80;99.10;;;;;;5138083;27;19923;-49
2023/07/17 12:25:17;;;;;;;;;;;21.70;98.90;;;;;;5119643;27;19919;-48
2023/07/17 12:27:43;;;;;;;;;;;21.40;99.90;;;;;;5138006;27;19926;-49
2023/07/17 12:30:09;;;;;;;;;;;21.20;99.90;;;;;;5137727;27;20023;-49
2023/07/17 12:32:35;;;;;;;;;;;21.20;99.90;;;;;;5138064;27;19919;-50
2023/07/17 12:35:00;;;;;;;;;;;21.30;99.90;;;;;;5137900;27;20017;-50
2023/07/17 12:37:29;;;;;;;;;;;21.50;99.90;;;;;;5137774;27;19919;-53
2023/07/17 12:39:55;;;;;;;;;;;21.60;99.90;;;;;;5137678;27;20022;-50
2023/07/17 12:42:21;;;;;;;;;;;21.60;99.90;;;;;;5137579;27;19926;-48
2023/07/17 12:44:47;;;;;;;;;;;21.50;99.90;;;;;;5119589;27;19923;-48
2023/07/17 12:47:12;;;;;;;;;;;21.40;99.90;;;;;;5137568;27;19978;-47
2023/07/17 12:49:38;;;;;;;;;;;21.30;99.80;;;;;;5137839;27;19919;-49
2023/07/17 12:52:04;;;;;;;;;;;21.20;99.90;;;;;;5137435;27;20277;-47
2023/07/17 12:54:29;;;;;;;;;;;21.00;99.90;;;;;;5119421;27;19923;-50
2023/07/17 12:56:55;;;;;;;;;;;20.90;99.90;;;;;;5137488;27;19923;-47
2023/07/17 12:59:21;;;;;;;;;;;20.80;99.90;;;;;;5137400;27;20291;-48
2023/07/17 13:01:47;;;;;;;;;;;20.90;99.90;;;;;;5137323;27;20010;-47
2023/07/17 13:04:12;;;;;;;;;;;21.00;99.90;;;;;;5119118;27;20034;-48
2023/07/17 13:06:38;;;;;;;;;;;21.20;99.60;;;;;;5137221;27;19942;-47
2023/07/17 13:09:04;;;;;;;;;;;21.40;99.10;;;;;;5137191;27;19920;-53
2023/07/17 13:11:29;;;;;;;;;;;21.60;99.40;;;;;;5136005;27;19923;-47
2023/07/17 13:13:55;;;;;;;;;;;21.80;98.80;;;;;;5136756;27;19919;-47
2023/07/17 13:16:20;;;;;;;;;;;22.00;98.00;;;;;;5137059;27;19923;-48
2023/07/17 13:18:46;;;;;;;;;;;22.10;98.50;;;;;;5118605;27;19927;-46
2023/07/17 13:21:11;;;;;;;;;;;22.20;97.70;;;;;;5136909;27;19919;-48
2023/07/17 13:23:38;;;;;;;;;;;22.40;97.10;;;;;;5118779;27;19919;-53
2023/07/17 13:26:03;;;;;;;;;;;22.50;98.30;;;;;;5136847;27;20011;-47
2023/07/17 13:28:29;;;;;;;;;;;22.50;97.70;;;;;;5118566;27;20352;-47
2023/07/17 13:30:55;;;;;;;;;;;22.40;96.30;;;;;;5119033;27;19919;-52
2023/07/17 13:33:21;;;;;;;;;;;22.50;97.70;;;;;;5136680;27;19919;-46
2023/07/17 13:35:46;;;;;;;;;;;22.50;96.60;;;;;;5136390;27;19973;-47
2023/07/17 13:38:12;;;;;;;;;;;22.50;96.10;;;;;;5118327;27;19964;-48
2023/07/17 13:40:37;;;;;;;;;;;22.50;95.90;;;;;;5136473;27;20451;-54
2023/07/17 13:43:03;;;;;;;;;;;22.50;96.30;;;;;;5136532;27;20386;-50
2023/07/17 13:45:28;;;;;;;;;;;22.60;96.20;;;;;;5136264;27;19971;-48
2023/07/17 13:47:54;;;;;;;;;;;22.60;97.00;;;;;;5101134;27;19972;-51
2023/07/17 13:50:19;;;;;;;;;;;22.80;95.90;;;;;;5136310;27;20364;-47
2023/07/17 13:52:45;;;;;;;;;;;22.80;95.20;;;;;;5136178;27;19919;-48
2023/07/17 13:55:13;;;;;;;;;;;22.80;95.30;;;;;;5136299;27;20002;-47
2023/07/17 13:57:38;;;;;;;;;;;22.80;94.60;;;;;;5136151;27;20011;-53
2023/07/17 14:00:04;;;;;;;;;;;22.80;96.10;;;;;;5135993;27;20390;-48
2023/07/17 14:02:30;;;;;;;;;;;22.80;95.40;;;;;;5136118;27;19923;-49
2023/07/17 14:04:55;;;;;;;;;;;22.70;94.00;;;;;;5136628;27;19919;-52
2023/07/17 14:07:21;;;;;;;;;;;22.60;95.20;;;;;;5117785;27;19920;-49
2023/07/17 14:09:46;;;;;;;;;;;22.50;95.80;;;;;;5135984;27;19926;-53
2023/07/17 14:12:12;;;;;;;;;;;22.40;95.20;;;;;;5135853;27;19923;-52